RVD NFFN-NFFN
Flight info
| Callsign | RVD |
|---|---|
| Flight time | N/A |
| Altitude | 3000 |
| Route | ECHO MI |
| Aircraft | C172/L-SFG/C |
Departure
| Time | 2026-05-05 11:45 |
|---|---|
| Airport | Nadi International Airport (NFFN) |
Arrival
| Time | N/A |
|---|---|
| Airport | Nadi International Airport (NFFN) |
| Time | Latitude | Longitude | Altitude | Speed | Heading |
|---|---|---|---|---|---|
| 2026-05-05 11:44 | -17.75547 | 177.44594 | 47 ft | 0 kts | 107° |
| 2026-05-05 11:44 | -17.75607 | 177.44838 | 52 ft | 63 kts | 104° |
| 2026-05-05 11:44 | -17.75720 | 177.45357 | 220 ft | 74 kts | 104° |
| 2026-05-05 11:44 | -17.75828 | 177.45901 | 438 ft | 79 kts | 104° |
| 2026-05-05 11:45 | -17.76002 | 177.46692 | 666 ft | 90 kts | 106° |
| 2026-05-05 11:45 | -17.76156 | 177.47110 | 745 ft | 95 kts | 126° |
| 2026-05-05 11:45 | -17.76720 | 177.47498 | 869 ft | 100 kts | 159° |
| 2026-05-05 11:45 | -17.76935 | 177.47571 | 910 ft | 101 kts | 161° |
| 2026-05-05 11:46 | -17.78113 | 177.47906 | 1130 ft | 104 kts | 163° |
| 2026-05-05 11:46 | -17.78820 | 177.48102 | 1255 ft | 104 kts | 163° |
| 2026-05-05 11:46 | -17.79520 | 177.48299 | 1378 ft | 104 kts | 163° |
| 2026-05-05 11:46 | -17.80219 | 177.48496 | 1500 ft | 104 kts | 163° |
| 2026-05-05 11:47 | -17.80686 | 177.48628 | 1608 ft | 102 kts | 163° |
| 2026-05-05 11:47 | -17.81569 | 177.48880 | 1833 ft | 98 kts | 163° |
| 2026-05-05 11:47 | -17.82216 | 177.49069 | 2009 ft | 95 kts | 163° |
| 2026-05-05 11:47 | -17.82846 | 177.49255 | 2206 ft | 92 kts | 163° |
| 2026-05-05 11:48 | -17.84035 | 177.49615 | 2596 ft | 87 kts | 163° |
| 2026-05-05 11:48 | -17.84613 | 177.49797 | 2793 ft | 86 kts | 163° |
| 2026-05-05 11:48 | -17.85178 | 177.49979 | 2990 ft | 84 kts | 163° |
| 2026-05-05 11:49 | -17.85731 | 177.50160 | 3185 ft | 84 kts | 163° |
| 2026-05-05 11:49 | -17.86291 | 177.50349 | 3385 ft | 84 kts | 163° |
| 2026-05-05 11:49 | -17.86837 | 177.50540 | 3581 ft | 83 kts | 163° |
| 2026-05-05 11:49 | -17.87383 | 177.50734 | 3778 ft | 83 kts | 163° |
| 2026-05-05 11:50 | -17.87930 | 177.50934 | 3977 ft | 82 kts | 163° |
| 2026-05-05 11:50 | -17.88467 | 177.51135 | 4174 ft | 82 kts | 163° |
| 2026-05-05 11:50 | -17.89002 | 177.51343 | 4372 ft | 82 kts | 163° |
| 2026-05-05 11:50 | -17.89530 | 177.51553 | 4569 ft | 81 kts | 163° |
| 2026-05-05 11:51 | -17.90059 | 177.51770 | 4768 ft | 81 kts | 163° |
| 2026-05-05 11:51 | -17.90583 | 177.51991 | 4966 ft | 81 kts | 163° |
| 2026-05-05 11:51 | -17.91104 | 177.52217 | 5166 ft | 80 kts | 163° |
| 2026-05-05 11:51 | -17.91615 | 177.52444 | 5363 ft | 80 kts | 163° |
| 2026-05-05 11:52 | -17.92139 | 177.52683 | 5499 ft | 86 kts | 163° |
| 2026-05-05 11:52 | -17.92696 | 177.52936 | 5626 ft | 90 kts | 163° |
| 2026-05-05 11:52 | -17.93280 | 177.53201 | 5752 ft | 92 kts | 163° |
| 2026-05-05 11:52 | -17.93880 | 177.53476 | 5877 ft | 94 kts | 163° |
| 2026-05-05 11:53 | -17.94486 | 177.53757 | 6002 ft | 95 kts | 163° |
| 2026-05-05 11:53 | -17.95087 | 177.54038 | 6125 ft | 96 kts | 163° |
| 2026-05-05 11:53 | -17.95698 | 177.54327 | 6249 ft | 96 kts | 163° |
| 2026-05-05 11:53 | -17.96312 | 177.54623 | 6374 ft | 97 kts | 163° |
| 2026-05-05 11:54 | -17.96924 | 177.54921 | 6498 ft | 97 kts | 163° |
| 2026-05-05 11:54 | -17.97534 | 177.55222 | 6622 ft | 97 kts | 163° |
| 2026-05-05 11:54 | -17.98148 | 177.55528 | 6746 ft | 97 kts | 162° |
| 2026-05-05 11:54 | -17.98765 | 177.55839 | 6871 ft | 98 kts | 162° |
| 2026-05-05 11:55 | -17.99377 | 177.56152 | 6996 ft | 98 kts | 162° |
| 2026-05-05 11:55 | -17.99999 | 177.56471 | 6980 ft | 96 kts | 163° |
| 2026-05-05 11:55 | -18.00569 | 177.56779 | 6975 ft | 88 kts | 158° |
| 2026-05-05 11:55 | -18.00964 | 177.57278 | 6976 ft | 90 kts | 129° |
| 2026-05-05 11:56 | -18.01101 | 177.57886 | 6977 ft | 93 kts | 104° |
| 2026-05-05 12:37 | -18.01120 | 177.58232 | 6977 ft | 91 kts | 103° |
| 2026-05-05 12:37 | -18.01142 | 177.58885 | 6976 ft | 88 kts | 102° |
| 2026-05-05 12:38 | -18.01162 | 177.59517 | 6977 ft | 84 kts | 104° |
| 2026-05-05 12:38 | -18.01240 | 177.60106 | 6977 ft | 79 kts | 112° |
| 2026-05-05 12:38 | -18.01331 | 177.60671 | 6978 ft | 77 kts | 112° |
| 2026-05-05 12:38 | -18.01414 | 177.61215 | 6978 ft | 74 kts | 112° |
| 2026-05-05 12:39 | -18.01492 | 177.61742 | 6978 ft | 72 kts | 113° |
| 2026-05-05 12:39 | -18.01569 | 177.62254 | 6977 ft | 69 kts | 113° |
| 2026-05-05 12:39 | -18.01638 | 177.62744 | 6976 ft | 66 kts | 114° |
| 2026-05-05 12:39 | -18.01695 | 177.63213 | 6966 ft | 64 kts | 111° |
| 2026-05-05 12:40 | -18.01729 | 177.63684 | 6936 ft | 62 kts | 124° |
| 2026-05-05 12:40 | -18.01588 | 177.64154 | 6902 ft | 75 kts | 44° |
| 2026-05-05 12:40 | -18.01127 | 177.64374 | 6872 ft | 71 kts | 355° |
| 2026-05-05 12:40 | -18.00632 | 177.64343 | 6821 ft | 74 kts | 341° |
| 2026-05-05 12:41 | -18.00100 | 177.64256 | 6975 ft | 72 kts | 336° |
| 2026-05-05 12:41 | -17.99562 | 177.64156 | 7002 ft | 97 kts | 338° |
| 2026-05-05 12:41 | -17.98822 | 177.63979 | 6953 ft | 119 kts | 338° |
| 2026-05-05 12:41 | -17.97973 | 177.63759 | 6897 ft | 131 kts | 338° |
| 2026-05-05 12:42 | -17.97067 | 177.63512 | 6803 ft | 138 kts | 339° |
| 2026-05-05 12:42 | -17.96126 | 177.63249 | 6705 ft | 141 kts | 339° |
| 2026-05-05 12:42 | -17.95174 | 177.62979 | 6605 ft | 142 kts | 339° |
| 2026-05-05 12:42 | -17.94229 | 177.62709 | 6506 ft | 142 kts | 338° |
| 2026-05-05 12:43 | -17.93293 | 177.62404 | 6407 ft | 141 kts | 333° |
| 2026-05-05 12:43 | -17.92397 | 177.61984 | 6307 ft | 139 kts | 323° |
| 2026-05-05 12:43 | -17.91574 | 177.61459 | 6207 ft | 139 kts | 321° |
| 2026-05-05 12:43 | -17.90759 | 177.60927 | 6108 ft | 139 kts | 321° |
| 2026-05-05 12:44 | -17.89938 | 177.60387 | 6007 ft | 139 kts | 321° |
| 2026-05-05 12:44 | -17.89155 | 177.59876 | 5999 ft | 121 kts | 321° |
| 2026-05-05 12:44 | -17.88496 | 177.59454 | 5996 ft | 100 kts | 316° |
| 2026-05-05 12:44 | -17.87978 | 177.59036 | 5925 ft | 94 kts | 314° |
| 2026-05-05 12:45 | -17.87397 | 177.58675 | 5791 ft | 98 kts | 321° |
| 2026-05-05 12:45 | -17.86801 | 177.58315 | 5830 ft | 100 kts | 321° |
| 2026-05-05 12:45 | -17.86188 | 177.57938 | 5883 ft | 104 kts | 321° |
| 2026-05-05 12:45 | -17.85568 | 177.57548 | 5981 ft | 101 kts | 317° |
| 2026-05-05 12:46 | -17.84990 | 177.57071 | 5975 ft | 107 kts | 311° |
| 2026-05-05 12:46 | -17.84434 | 177.56586 | 6032 ft | 108 kts | 310° |
| 2026-05-05 12:46 | -17.83869 | 177.56043 | 6050 ft | 109 kts | 308° |
| 2026-05-05 12:46 | -17.83320 | 177.55492 | 6100 ft | 106 kts | 307° |
| 2026-05-05 12:47 | -17.82810 | 177.54910 | 6108 ft | 108 kts | 300° |
| 2026-05-05 12:47 | -17.82376 | 177.54298 | 6118 ft | 110 kts | 297° |
| 2026-05-05 12:47 | -17.81867 | 177.53651 | 6059 ft | 112 kts | 305° |
| 2026-05-05 12:47 | -17.81335 | 177.53081 | 5924 ft | 111 kts | 307° |
| 2026-05-05 12:48 | -17.80723 | 177.52580 | 5846 ft | 110 kts | 321° |
| 2026-05-05 12:48 | -17.80060 | 177.52212 | 5780 ft | 109 kts | 328° |
| 2026-05-05 12:48 | -17.79360 | 177.51941 | 5807 ft | 103 kts | 330° |
| 2026-05-05 12:48 | -17.78713 | 177.51623 | 5799 ft | 100 kts | 317° |
| 2026-05-05 12:49 | -17.78158 | 177.51176 | 5791 ft | 99 kts | 314° |
| 2026-05-05 12:49 | -17.77616 | 177.50774 | 5839 ft | 94 kts | 316° |
| 2026-05-05 12:49 | -17.77061 | 177.50413 | 5900 ft | 93 kts | 319° |
| 2026-05-05 12:49 | -17.76516 | 177.50067 | 5985 ft | 89 kts | 318° |
| 2026-05-05 12:50 | -17.75979 | 177.49718 | 5998 ft | 94 kts | 317° |
| 2026-05-05 12:50 | -17.75411 | 177.49336 | 6010 ft | 98 kts | 319° |
| 2026-05-05 12:50 | -17.74807 | 177.48958 | 5992 ft | 103 kts | 319° |
| 2026-05-05 12:50 | -17.74219 | 177.48540 | 6016 ft | 101 kts | 314° |
| 2026-05-05 12:51 | -17.73628 | 177.48122 | 6019 ft | 107 kts | 328° |
| 2026-05-05 12:51 | -17.72926 | 177.47850 | 6028 ft | 108 kts | 332° |
| 2026-05-05 12:51 | -17.72208 | 177.47571 | 5990 ft | 112 kts | 332° |
| 2026-05-05 12:51 | -17.71463 | 177.47293 | 5970 ft | 113 kts | 335° |
| 2026-05-05 12:52 | -17.70723 | 177.47029 | 5968 ft | 111 kts | 328° |
| 2026-05-05 12:52 | -17.70070 | 177.46584 | 5911 ft | 110 kts | 314° |
| 2026-05-05 12:52 | -17.69515 | 177.46072 | 5928 ft | 105 kts | 306° |
| 2026-05-05 12:52 | -17.68985 | 177.45517 | 5888 ft | 107 kts | 306° |
| 2026-05-05 12:53 | -17.68448 | 177.44981 | 5889 ft | 107 kts | 309° |
| 2026-05-05 12:53 | -17.67865 | 177.44488 | 5860 ft | 110 kts | 315° |
| 2026-05-05 12:53 | -17.67283 | 177.44008 | 5934 ft | 100 kts | 312° |